Time;durP1;ratioP1;P1;durP2;ratioP2;P2;SDS_P1;SDS_P2;PMS_P1;PMS_P2;Temp;Humidity;BMP_temperature;BMP_pressure;BME280_temperature;BME280_humidity;BME280_pressure;Samples;Min_cycle;Max_cycle;Signal;HPM_P1;HPM_P2
2020/12/17 00:00:18;;;;;;;6.20;5.68;;;9.00;99.90;;;;;;5071274;28;20059;-68
2020/12/17 00:02:45;;;;;;;7.53;6.07;;;9.00;99.90;;;;;;5071636;28;20028;-68
2020/12/17 00:05:10;;;;;;;11.32;5.70;;;9.00;99.90;;;;;;5070917;28;20036;-68
2020/12/17 00:07:40;;;;;;;7.70;6.00;;;9.00;99.90;;;;;;5071671;28;20063;-69
2020/12/17 00:10:07;;;;;;;11.18;6.15;;;9.00;99.90;;;;;;5071601;28;20025;-68
2020/12/17 00:12:41;;;;;;;6.40;5.53;;;9.00;99.90;;;;;;5070740;28;20135;-69
2020/12/17 00:15:09;;;;;;;6.63;5.88;;;9.10;99.90;;;;;;5071370;28;20097;-68
2020/12/17 00:17:42;;;;;;;6.68;5.65;;;9.00;99.90;;;;;;5071480;28;20028;-69
2020/12/17 00:20:09;;;;;;;6.25;5.63;;;9.00;99.90;;;;;;5070639;28;20017;-68
2020/12/17 00:22:40;;;;;;;6.70;6.05;;;9.00;99.90;;;;;;5070771;28;20542;-68
2020/12/17 00:25:10;;;;;;;5.55;4.90;;;9.00;99.90;;;;;;5070800;28;20037;-68
2020/12/17 00:27:39;;;;;;;5.72;5.22;;;9.00;99.90;;;;;;5070784;28;20029;-68
2020/12/17 00:30:06;;;;;;;6.07;5.47;;;9.00;99.90;;;;;;5071306;28;20380;-68
2020/12/17 00:32:31;;;;;;;6.07;5.47;;;8.90;99.90;;;;;;5070056;28;20441;-69
2020/12/17 00:34:57;;;;;;;10.43;5.97;;;8.90;99.90;;;;;;5071097;28;20053;-68
2020/12/17 00:37:30;;;;;;;6.07;5.47;;;8.90;99.90;;;;;;5070715;28;20534;-68
2020/12/17 00:39:56;;;;;;;17.65;8.63;;;8.90;99.90;;;;;;5070572;28;20083;-68
2020/12/17 00:42:21;;;;;;;7.07;5.70;;;8.90;99.90;;;;;;5070459;28;20025;-68
2020/12/17 00:44:47;;;;;;;9.10;5.65;;;8.90;99.90;;;;;;5071298;28;20412;-67
2020/12/17 00:47:13;;;;;;;9.30;6.30;;;8.90;99.90;;;;;;5070177;28;20021;-68
2020/12/17 00:49:38;;;;;;;7.05;6.40;;;8.90;99.90;;;;;;5070818;28;20101;-68
2020/12/17 00:52:04;;;;;;;12.93;6.10;;;8.90;99.90;;;;;;5070985;28;20025;-69
2020/12/17 00:54:29;;;;;;;6.85;6.05;;;8.90;99.90;;;;;;5069851;28;20024;-68
2020/12/17 00:56:55;;;;;;;6.32;5.75;;;8.90;99.90;;;;;;5070830;28;20040;-68
2020/12/17 00:59:22;;;;;;;7.00;5.70;;;9.00;99.90;;;;;;5070237;28;20082;-68
2020/12/17 01:01:48;;;;;;;7.20;6.50;;;8.90;99.90;;;;;;5070098;28;20024;-67
2020/12/17 01:04:14;;;;;;;9.80;6.95;;;9.00;99.90;;;;;;5070738;28;20024;-68
2020/12/17 01:06:40;;;;;;;9.63;5.90;;;9.00;99.90;;;;;;5070745;28;20025;-69
2020/12/17 01:09:06;;;;;;;10.10;6.15;;;9.00;99.90;;;;;;5070281;28;20426;-68
2020/12/17 01:11:32;;;;;;;7.47;5.95;;;8.90;99.90;;;;;;5070516;28;20029;-68
2020/12/17 01:13:58;;;;;;;8.30;5.90;;;9.00;99.90;;;;;;5071027;28;20020;-69
2020/12/17 01:16:24;;;;;;;10.57;6.03;;;9.00;99.90;;;;;;5069925;28;20082;-68
2020/12/17 01:18:49;;;;;;;8.93;6.18;;;9.00;99.90;;;;;;5070556;28;20020;-68
2020/12/17 01:21:16;;;;;;;5.90;4.82;;;8.90;99.90;;;;;;5069395;28;20850;-69
2020/12/17 01:23:42;;;;;;;5.95;5.38;;;8.90;99.90;;;;;;5070662;28;20103;-69
2020/12/17 01:26:08;;;;;;;7.72;5.75;;;8.90;99.90;;;;;;5070817;28;20166;-68
2020/12/17 01:28:38;;;;;;;8.18;6.82;;;8.90;99.90;;;;;;5068903;28;20025;-69
2020/12/17 01:31:15;;;;;;;11.02;6.50;;;9.00;99.90;;;;;;5070383;28;20031;-69
2020/12/17 01:33:41;;;;;;;8.45;5.43;;;8.90;99.90;;;;;;5073967;28;20116;-69
2020/12/17 01:36:09;;;;;;;6.78;5.55;;;9.00;99.90;;;;;;5084258;28;20123;-70
2020/12/17 01:38:35;;;;;;;7.20;6.00;;;9.00;99.90;;;;;;5076777;28;20463;-69
2020/12/17 01:41:02;;;;;;;6.63;5.32;;;9.00;99.90;;;;;;5090434;28;20055;-68
2020/12/17 01:43:35;;;;;;;7.43;5.65;;;9.00;99.90;;;;;;5089568;28;20024;-68
2020/12/17 01:46:00;;;;;;;8.57;5.88;;;9.00;99.90;;;;;;5086019;28;20033;-69
2020/12/17 01:48:28;;;;;;;8.45;5.53;;;9.00;99.90;;;;;;5080700;28;20026;-69
2020/12/17 01:50:53;;;;;;;6.10;5.50;;;9.00;99.90;;;;;;5089646;28;20217;-69
2020/12/17 01:53:19;;;;;;;8.90;6.10;;;9.00;99.90;;;;;;5090596;28;20016;-68
2020/12/17 01:55:44;;;;;;;6.80;5.78;;;9.00;99.90;;;;;;5090614;28;20228;-68
2020/12/17 01:58:13;;;;;;;8.52;6.25;;;9.00;99.90;;;;;;5090126;28;20541;-68
2020/12/17 02:00:38;;;;;;;11.57;5.70;;;9.00;99.90;;;;;;5090779;28;20020;-68
2020/12/17 02:03:06;;;;;;;7.03;6.00;;;9.00;99.90;;;;;;5086372;28;20357;-69
2020/12/17 02:05:32;;;;;;;6.80;5.70;;;9.00;99.90;;;;;;5080147;28;20114;-68
2020/12/17 02:08:00;;;;;;;10.93;5.75;;;9.00;99.90;;;;;;5090421;28;20456;-68
2020/12/17 02:10:26;;;;;;;6.32;5.72;;;9.00;99.90;;;;;;5081300;28;20530;-68
2020/12/17 02:12:52;;;;;;;7.13;6.22;;;9.00;99.90;;;;;;5074878;28;20473;-69
2020/12/17 02:15:19;;;;;;;6.57;5.80;;;9.00;99.90;;;;;;5094061;28;20031;-68
2020/12/17 02:17:45;;;;;;;8.25;5.75;;;9.00;99.90;;;;;;5093542;28;20092;-69
2020/12/17 02:20:11;;;;;;;7.75;6.15;;;9.00;99.90;;;;;;5094003;28;20349;-68
2020/12/17 02:22:37;;;;;;;6.93;6.22;;;9.00;99.90;;;;;;5093998;28;20027;-69
2020/12/17 02:25:08;;;;;;;9.38;6.20;;;9.00;99.90;;;;;;5093147;28;20386;-68
2020/12/17 02:27:34;;;;;;;8.75;5.80;;;9.00;99.90;;;;;;5093829;28;20051;-69
2020/12/17 02:30:00;;;;;;;6.40;5.72;;;9.00;99.90;;;;;;5093875;28;20499;-68
2020/12/17 02:32:25;;;;;;;7.10;6.40;;;9.00;99.90;;;;;;5093094;28;20020;-68
2020/12/17 02:34:51;;;;;;;6.70;6.00;;;9.10;99.90;;;;;;5093572;28;20426;-68
2020/12/17 02:37:16;;;;;;;6.00;5.45;;;9.10;99.90;;;;;;5088651;28;20415;-68
2020/12/17 02:39:42;;;;;;;7.93;6.35;;;9.10;99.90;;;;;;5083466;28;20372;-68
2020/12/17 02:42:07;;;;;;;7.43;6.15;;;9.10;99.90;;;;;;5093463;28;20026;-68
2020/12/17 02:44:33;;;;;;;9.18;6.43;;;9.10;99.90;;;;;;5093324;28;20074;-68
2020/12/17 02:46:59;;;;;;;6.80;6.15;;;9.10;99.90;;;;;;5092646;28;20044;-68
2020/12/17 02:49:24;;;;;;;7.57;5.70;;;9.10;99.90;;;;;;5093151;28;20024;-68
2020/12/17 02:51:50;;;;;;;13.88;6.32;;;9.10;99.90;;;;;;5093415;28;20123;-68
2020/12/17 02:54:15;;;;;;;7.13;6.28;;;9.10;99.90;;;;;;5092410;28;20028;-68
2020/12/17 02:56:41;;;;;;;6.25;5.65;;;9.10;99.90;;;;;;5093436;28;20036;-68
2020/12/17 02:59:06;;;;;;;6.50;5.90;;;9.10;99.90;;;;;;5093134;28;20103;-68
2020/12/17 03:01:32;;;;;;;8.95;5.82;;;9.10;99.90;;;;;;5092618;28;20039;-69
2020/12/17 03:03:57;;;;;;;7.05;6.45;;;9.10;99.90;;;;;;5092959;28;20392;-69
2020/12/17 03:06:23;;;;;;;7.63;6.05;;;9.10;99.90;;;;;;5092723;28;20598;-68
2020/12/17 03:08:48;;;;;;;8.02;7.07;;;9.10;99.90;;;;;;5092625;28;20024;-70
2020/12/17 03:11:14;;;;;;;7.88;6.72;;;9.10;99.90;;;;;;5093079;28;20460;-68
2020/12/17 03:13:39;;;;;;;6.97;6.32;;;9.10;99.90;;;;;;5093428;28;20050;-68
2020/12/17 03:16:05;;;;;;;6.78;6.18;;;9.10;99.90;;;;;;5092436;28;20040;-68
2020/12/17 03:18:30;;;;;;;7.40;6.45;;;9.10;99.90;;;;;;5093046;28;20020;-68
2020/12/17 03:20:56;;;;;;;7.03;6.40;;;9.10;99.90;;;;;;5092821;28;20031;-68
2020/12/17 03:23:22;;;;;;;7.63;6.70;;;9.10;99.90;;;;;;5092991;28;20069;-68
2020/12/17 03:25:47;;;;;;;10.25;7.20;;;9.10;99.90;;;;;;5092794;28;20439;-69
2020/12/17 03:28:13;;;;;;;7.72;7.03;;;9.10;99.90;;;;;;5091476;28;20038;-69
2020/12/17 03:30:38;;;;;;;7.80;7.07;;;9.20;99.90;;;;;;5092608;28;20031;-69
2020/12/17 03:33:04;;;;;;;7.57;6.82;;;9.20;99.90;;;;;;5092245;28;20085;-69
2020/12/17 03:35:30;;;;;;;8.98;8.07;;;9.20;99.90;;;;;;5091224;28;20139;-69
2020/12/17 03:37:58;;;;;;;8.75;7.68;;;9.20;99.90;;;;;;5082035;28;20036;-69
2020/12/17 03:40:28;;;;;;;9.18;7.80;;;9.20;99.90;;;;;;5068457;28;20024;-69
2020/12/17 03:42:54;;;;;;;10.23;8.15;;;9.20;99.90;;;;;;5071882;28;20020;-70
2020/12/17 03:45:21;;;;;;;9.25;8.35;;;9.20;99.90;;;;;;5071914;28;20044;-70
2020/12/17 03:47:46;;;;;;;10.18;8.45;;;9.20;99.90;;;;;;5072132;28;20453;-69
2020/12/17 03:50:12;;;;;;;9.70;8.70;;;9.20;99.90;;;;;;5071644;28;20020;-69
2020/12/17 03:52:38;;;;;;;10.00;8.85;;;9.10;99.90;;;;;;5072227;28;20089;-70
2020/12/17 03:55:05;;;;;;;13.30;9.82;;;9.10;99.90;;;;;;5072041;28;20025;-69
2020/12/17 03:57:31;;;;;;;13.52;9.88;;;9.10;99.90;;;;;;5070871;28;20100;-69
2020/12/17 03:59:57;;;;;;;13.68;9.52;;;9.10;99.90;;;;;;5071910;28;20103;-69
2020/12/17 04:02:22;;;;;;;13.48;9.80;;;9.10;99.90;;;;;;5071183;28;20028;-69
2020/12/17 04:04:48;;;;;;;11.65;10.35;;;9.20;99.90;;;;;;5070979;28;20032;-69
2020/12/17 04:07:15;;;;;;;14.15;10.07;;;9.20;99.90;;;;;;5071492;28;20017;-69
2020/12/17 04:09:41;;;;;;;11.60;10.40;;;9.20;99.90;;;;;;5071605;28;20387;-69
2020/12/17 04:12:07;;;;;;;11.18;10.10;;;9.20;99.90;;;;;;5070946;28;20032;-69
2020/12/17 04:14:33;;;;;;;12.02;10.68;;;9.20;99.90;;;;;;5071128;28;20090;-69
2020/12/17 04:16:59;;;;;;;12.05;10.95;;;9.20;99.90;;;;;;5071266;28;20468;-69
2020/12/17 04:19:24;;;;;;;11.65;10.35;;;9.20;99.90;;;;;;5071202;28;20035;-69
2020/12/17 04:21:50;;;;;;;12.13;10.93;;;9.30;99.90;;;;;;5071643;28;20021;-69
2020/12/17 04:24:16;;;;;;;13.32;11.93;;;9.30;99.90;;;;;;5070558;28;20028;-69
2020/12/17 04:26:41;;;;;;;11.13;10.00;;;9.20;99.90;;;;;;5071344;28;20551;-69
2020/12/17 04:29:07;;;;;;;13.15;11.75;;;9.20;99.90;;;;;;5071405;28;20028;-69
2020/12/17 04:31:33;;;;;;;14.25;11.88;;;9.20;99.90;;;;;;5070269;28;20112;-69
2020/12/17 04:33:59;;;;;;;13.68;12.27;;;9.20;99.90;;;;;;5070413;28;20365;-69
2020/12/17 04:36:25;;;;;;;14.77;11.90;;;9.20;99.90;;;;;;5071045;28;20032;-69
2020/12/17 04:38:51;;;;;;;16.25;12.93;;;9.20;99.90;;;;;;5074473;28;20024;-69
2020/12/17 04:41:20;;;;;;;13.77;12.35;;;9.10;99.90;;;;;;5091198;28;20088;-69
2020/12/17 04:43:46;;;;;;;13.40;12.00;;;9.20;99.90;;;;;;5091197;28;20055;-69
2020/12/17 04:46:16;;;;;;;16.25;12.88;;;9.20;99.90;;;;;;5090690;28;20073;-69
2020/12/17 04:48:42;;;;;;;14.80;12.60;;;9.20;99.90;;;;;;5091275;28;20108;-69
2020/12/17 04:51:08;;;;;;;14.65;12.73;;;9.10;99.90;;;;;;5091642;28;20107;-69
2020/12/17 04:53:36;;;;;;;16.00;13.70;;;9.10;99.90;;;;;;5090713;28;20150;-70
2020/12/17 04:56:02;;;;;;;16.15;13.52;;;9.10;99.90;;;;;;5091441;28;20024;-69
2020/12/17 04:58:31;;;;;;;24.50;14.65;;;9.10;99.90;;;;;;5090836;28;20020;-69
2020/12/17 05:00:57;;;;;;;16.63;14.25;;;9.10;99.90;;;;;;5090617;28;20074;-69
2020/12/17 05:03:23;;;;;;;16.27;14.65;;;9.10;99.90;;;;;;5090679;28;20012;-68
2020/12/17 05:05:52;;;;;;;16.35;14.32;;;9.10;99.90;;;;;;5090628;28;20364;-69
2020/12/17 05:08:21;;;;;;;16.90;14.98;;;9.10;99.90;;;;;;5090144;28;20022;-69
2020/12/17 05:10:47;;;;;;;19.42;14.55;;;9.10;99.90;;;;;;5090949;28;20508;-69
2020/12/17 05:13:12;;;;;;;17.77;15.15;;;9.00;99.90;;;;;;5090631;28;20096;-69
2020/12/17 05:15:38;;;;;;;18.70;14.80;;;9.00;99.90;;;;;;5090239;28;20174;-69
2020/12/17 05:18:07;;;;;;;18.38;15.20;;;9.00;99.90;;;;;;5090820;28;20031;-69
2020/12/17 05:20:35;;;;;;;19.95;14.98;;;9.00;99.90;;;;;;5089859;28;20553;-68
2020/12/17 05:23:02;;;;;;;19.45;15.63;;;9.00;99.90;;;;;;5090434;28;20020;-68
2020/12/17 05:25:27;;;;;;;20.42;15.50;;;9.00;99.90;;;;;;5090434;28;20475;-68
2020/12/17 05:27:53;;;;;;;19.60;15.45;;;9.00;99.90;;;;;;5089840;28;20024;-68
2020/12/17 05:30:18;;;;;;;18.10;15.23;;;8.90;99.90;;;;;;5090711;28;20020;-67
2020/12/17 05:32:44;;;;;;;16.67;14.88;;;9.00;99.90;;;;;;5090486;28;20099;-68
2020/12/17 05:35:16;;;;;;;20.55;16.30;;;9.00;99.90;;;;;;5089713;28;20043;-68
2020/12/17 05:37:42;;;;;;;17.52;14.57;;;8.90;99.90;;;;;;5082283;28;20044;-68
2020/12/17 05:40:08;;;;;;;18.90;16.02;;;8.90;99.90;;;;;;5084911;28;20027;-68
2020/12/17 05:42:34;;;;;;;23.33;16.00;;;8.90;99.90;;;;;;5090035;28;20376;-69
2020/12/17 05:44:59;;;;;;;20.90;14.93;;;8.90;99.90;;;;;;5092637;28;20083;-69
2020/12/17 05:47:25;;;;;;;21.90;16.05;;;8.80;99.90;;;;;;5094584;28;20063;-69
2020/12/17 05:49:50;;;;;;;21.50;15.60;;;8.80;99.90;;;;;;5094375;28;20115;-69
2020/12/17 05:52:17;;;;;;;19.30;15.13;;;8.70;99.90;;;;;;5094644;28;20043;-69
2020/12/17 05:55:03;;;;;;;20.30;15.82;;;8.80;99.90;;;;;;5094981;28;20024;-68
2020/12/17 05:57:29;;;;;;;16.08;13.90;;;8.70;99.90;;;;;;5093352;28;20032;-69
2020/12/17 06:00:19;;;;;;;22.80;14.35;;;8.70;99.90;;;;;;5094546;28;20253;-68
2020/12/17 06:02:44;;;;;;;20.55;13.88;;;8.80;99.90;;;;;;5093610;28;20103;-68
2020/12/17 06:05:15;;;;;;;18.40;13.25;;;8.80;99.90;;;;;;5094195;28;20118;-68
2020/12/17 06:07:49;;;;;;;20.88;12.65;;;8.70;99.90;;;;;;5094549;28;20028;-69
2020/12/17 06:10:19;;;;;;;14.70;12.23;;;8.80;99.90;;;;;;5093692;28;20012;-69
2020/12/17 06:12:48;;;;;;;16.92;12.95;;;8.80;99.90;;;;;;5090075;28;20044;-68
2020/12/17 06:15:19;;;;;;;16.88;13.05;;;8.80;99.90;;;;;;5074294;28;20032;-68
2020/12/17 06:17:50;;;;;;;14.60;13.02;;;8.70;99.90;;;;;;5088998;28;20030;-68
2020/12/17 06:20:17;;;;;;;20.13;13.70;;;8.70;99.90;;;;;;5090781;28;20024;-68
2020/12/17 06:22:51;;;;;;;17.17;14.10;;;8.70;99.90;;;;;;5091036;28;20051;-68
2020/12/17 06:25:17;;;;;;;19.50;13.70;;;8.70;99.90;;;;;;5088636;28;20039;-69
2020/12/17 06:27:46;;;;;;;17.63;14.77;;;8.70;99.90;;;;;;5092863;28;20099;-68
2020/12/17 06:30:21;;;;;;;17.40;13.43;;;8.70;99.90;;;;;;5082690;28;20024;-68
2020/12/17 06:32:48;;;;;;;19.17;14.50;;;8.70;99.90;;;;;;5088713;28;20020;-69
2020/12/17 06:35:42;;;;;;;16.95;14.68;;;8.80;99.90;;;;;;5085363;28;20188;-68
2020/12/17 06:38:16;;;;;;;18.00;14.45;;;8.80;99.90;;;;;;5077723;28;20038;-68
2020/12/17 06:40:42;;;;;;;16.17;12.95;;;8.70;99.90;;;;;;5087643;28;20036;-68
2020/12/17 06:43:36;;;;;;;19.00;14.40;;;8.70;99.90;;;;;;5091278;28;20143;-68
2020/12/17 06:46:03;;;;;;;16.20;12.75;;;8.70;99.90;;;;;;5082529;28;20369;-68
2020/12/17 06:48:41;;;;;;;16.88;13.73;;;8.70;99.90;;;;;;5089281;28;20020;-68
2020/12/17 06:51:30;;;;;;;16.80;13.35;;;8.70;99.90;;;;;;5086488;28;20337;-68
2020/12/17 06:53:56;;;;;;;15.48;13.45;;;8.70;99.90;;;;;;5084832;28;20502;-70
2020/12/17 06:56:21;;;;;;;19.65;13.25;;;8.70;99.90;;;;;;5090826;28;20107;-68
2020/12/17 06:58:47;;;;;;;18.80;13.90;;;8.70;99.90;;;;;;5091048;28;20069;-70
2020/12/17 07:01:23;;;;;;;18.83;13.02;;;8.60;99.90;;;;;;5089385;28;20032;-68
2020/12/17 07:03:50;;;;;;;17.77;13.48;;;8.60;99.90;;;;;;5092138;28;20069;-68
2020/12/17 07:06:23;;;;;;;20.15;14.13;;;8.60;99.90;;;;;;5089586;28;20065;-69
2020/12/17 07:08:52;;;;;;;20.65;14.32;;;8.50;99.90;;;;;;5092291;28;20533;-68
2020/12/17 07:11:37;;;;;;;23.83;15.13;;;8.60;99.90;;;;;;5092181;28;20076;-69
2020/12/17 07:14:08;;;;;;;22.60;15.82;;;8.60;99.90;;;;;;5089558;28;20368;-68
2020/12/17 07:16:36;;;;;;;22.48;16.10;;;8.60;99.90;;;;;;5085281;28;20036;-68
2020/12/17 07:19:22;;;;;;;18.15;15.60;;;8.60;99.90;;;;;;5087811;28;20400;-68
2020/12/17 07:21:52;;;;;;;18.00;14.88;;;8.70;99.90;;;;;;5085076;28;20032;-69
2020/12/17 07:24:26;;;;;;;18.85;14.65;;;8.70;99.90;;;;;;5090317;28;20031;-70
2020/12/17 07:26:53;;;;;;;17.30;14.73;;;8.70;99.90;;;;;;5086076;28;20388;-69
2020/12/17 07:29:27;;;;;;;18.73;14.32;;;8.80;99.90;;;;;;5089165;28;20024;-69
2020/12/17 07:31:53;;;;;;;18.33;14.55;;;8.80;99.90;;;;;;5082037;28;20029;-69
2020/12/17 07:34:19;;;;;;;19.77;14.82;;;8.80;99.90;;;;;;5088810;28;20040;-69
2020/12/17 07:36:48;;;;;;;17.75;14.38;;;8.80;99.90;;;;;;5088745;28;20040;-68
2020/12/17 07:39:14;;;;;;;24.27;15.43;;;8.90;99.90;;;;;;5088844;28;20072;-68
2020/12/17 07:41:40;;;;;;;23.60;14.65;;;8.80;99.90;;;;;;5087143;28;20027;-67
2020/12/17 07:44:06;;;;;;;21.33;15.57;;;8.90;99.90;;;;;;5088495;28;20111;-70
2020/12/17 07:46:36;;;;;;;16.80;14.30;;;9.00;99.90;;;;;;5088935;28;20028;-68
2020/12/17 07:49:18;;;;;;;19.80;15.50;;;9.00;99.90;;;;;;5086790;28;20013;-69
2020/12/17 07:51:44;;;;;;;18.88;15.40;;;9.00;99.90;;;;;;5090586;28;20032;-69
2020/12/17 07:54:10;;;;;;;19.55;15.20;;;9.00;99.90;;;;;;5090030;28;20341;-69
2020/12/17 07:56:35;;;;;;;21.92;15.40;;;9.00;99.90;;;;;;5083201;28;20039;-69
2020/12/17 07:59:04;;;;;;;17.58;14.30;;;9.00;99.90;;;;;;5084859;28;20023;-68
2020/12/17 08:01:30;;;;;;;19.33;14.93;;;9.10;99.90;;;;;;5089556;28;20017;-69
2020/12/17 08:03:56;;;;;;;21.13;13.93;;;9.10;99.90;;;;;;5089108;28;20071;-69
2020/12/17 08:06:27;;;;;;;17.88;13.18;;;9.10;99.90;;;;;;5090153;28;20483;-69
2020/12/17 08:08:54;;;;;;;14.95;12.35;;;9.10;99.90;;;;;;5089787;28;20380;-70
2020/12/17 08:11:20;;;;;;;17.58;13.70;;;9.10;99.90;;;;;;5071658;28;20032;-69
2020/12/17 08:13:46;;;;;;;13.85;11.73;;;9.20;99.90;;;;;;5072217;28;20500;-69
2020/12/17 08:16:11;;;;;;;13.35;11.27;;;9.20;99.90;;;;;;5071370;28;20036;-69
2020/12/17 08:18:37;;;;;;;13.40;11.20;;;9.20;99.90;;;;;;5071940;28;20035;-69
2020/12/17 08:21:08;;;;;;;15.02;9.75;;;9.30;99.90;;;;;;5072014;28;20516;-69
2020/12/17 08:23:36;;;;;;;11.00;9.45;;;9.30;99.90;;;;;;5059175;28;20025;-69
2020/12/17 08:26:04;;;;;;;13.20;9.65;;;9.30;99.90;;;;;;5071359;28;20576;-68
2020/12/17 08:28:32;;;;;;;15.32;10.13;;;9.20;99.90;;;;;;5070749;28;20031;-68
2020/12/17 08:31:04;;;;;;;13.40;9.40;;;9.20;99.90;;;;;;5071045;28;20040;-68
2020/12/17 08:33:30;;;;;;;10.80;8.80;;;9.30;99.90;;;;;;5071352;28;20101;-68
2020/12/17 08:36:04;;;;;;;14.90;9.82;;;9.30;99.90;;;;;;5071403;28;20457;-68
2020/12/17 08:38:30;;;;;;;19.40;9.07;;;9.30;99.90;;;;;;5071481;28;20095;-67
2020/12/17 08:40:57;;;;;;;10.48;8.77;;;9.30;99.90;;;;;;5091964;28;20059;-67
2020/12/17 08:43:26;;;;;;;16.10;8.35;;;9.30;99.90;;;;;;5091456;28;20031;-67
2020/12/17 08:45:54;;;;;;;16.63;8.40;;;9.30;99.90;;;;;;5091257;28;20039;-69
2020/12/17 08:48:22;;;;;;;10.90;8.25;;;9.30;99.90;;;;;;5091811;28;20054;-67
2020/12/17 08:50:48;;;;;;;12.18;8.40;;;9.20;99.90;;;;;;5091755;28;20475;-69
2020/12/17 08:53:23;;;;;;;19.80;7.97;;;9.20;99.90;;;;;;5090876;28;20028;-69
2020/12/17 08:56:05;;;;;;;10.82;7.53;;;9.20;99.90;;;;;;5091626;28;20024;-70
2020/12/17 08:58:43;;;;;;;11.80;7.60;;;9.20;99.90;;;;;;5090597;28;20499;-69
2020/12/17 09:01:16;;;;;;;11.90;7.60;;;9.20;99.90;;;;;;5090054;28;20026;-68
2020/12/17 09:03:46;;;;;;;15.52;7.93;;;9.30;99.90;;;;;;5084098;28;20082;-68
2020/12/17 09:06:12;;;;;;;11.40;6.88;;;9.30;99.90;;;;;;5088074;28;20036;-69
2020/12/17 09:08:38;;;;;;;8.30;6.57;;;9.40;99.90;;;;;;5084653;28;20396;-68
2020/12/17 09:11:04;;;;;;;17.08;7.53;;;9.50;99.90;;;;;;5089847;28;20075;-67
2020/12/17 09:13:29;;;;;;;10.75;6.95;;;9.60;99.90;;;;;;5088678;28;20466;-67
2020/12/17 09:15:58;;;;;;;10.25;6.25;;;9.60;99.90;;;;;;5090269;28;20193;-67
2020/12/17 09:18:24;;;;;;;6.13;5.53;;;9.70;99.90;;;;;;5085137;28;20521;-68
2020/12/17 09:21:08;;;;;;;14.50;7.03;;;9.60;99.90;;;;;;5091072;28;20032;-68
2020/12/17 09:23:33;;;;;;;11.32;7.05;;;9.60;99.90;;;;;;5090750;28;20033;-68
2020/12/17 09:26:15;;;;;;;9.70;5.95;;;9.50;99.90;;;;;;5089946;28;20549;-67
2020/12/17 09:29:03;;;;;;;11.35;6.70;;;9.40;99.90;;;;;;5091032;28;20378;-67
2020/12/17 09:31:31;;;;;;;8.20;5.88;;;9.40;99.90;;;;;;5090199;28;20028;-68
2020/12/17 09:34:12;;;;;;;13.30;6.00;;;9.40;99.90;;;;;;5089687;28;20044;-69
2020/12/17 09:36:39;;;;;;;;;;;9.40;99.90;;;;;;5090188;28;20048;-69
2020/12/17 09:39:15;;;;;;;10.50;5.32;;;9.40;99.90;;;;;;5091389;28;20255;-69
2020/12/17 09:41:57;;;;;;;9.93;5.50;;;9.40;99.90;;;;;;5074485;28;20089;-67
2020/12/17 09:44:34;;;;;;;10.70;5.70;;;9.40;99.90;;;;;;5090780;28;20026;-68
2020/12/17 09:47:01;;;;;;;11.95;5.72;;;9.50;99.90;;;;;;5083432;28;20040;-68
2020/12/17 09:49:38;;;;;;;19.88;6.32;;;9.50;99.90;;;;;;5090119;28;20028;-69
2020/12/17 09:52:10;;;;;;;10.18;5.68;;;9.50;99.90;;;;;;5089525;28;20063;-67
2020/12/17 09:54:42;;;;;;;16.05;6.40;;;9.50;99.90;;;;;;5071086;28;20036;-70
2020/12/17 09:57:13;;;;;;;9.57;5.00;;;9.50;99.90;;;;;;5072666;28;20484;-68
2020/12/17 09:59:40;;;;;;;16.00;5.88;;;9.70;99.90;;;;;;5071340;28;20444;-69
2020/12/17 10:02:11;;;;;;;12.55;7.72;;;9.50;99.90;;;;;;5070043;28;20028;-69
2020/12/17 10:04:38;;;;;;;14.75;5.70;;;9.50;99.90;;;;;;5070506;28;20029;-68
2020/12/17 10:07:04;;;;;;;17.05;5.55;;;9.50;99.90;;;;;;5070753;28;20050;-68
2020/12/17 10:09:30;;;;;;;11.57;5.55;;;9.60;99.90;;;;;;5070389;28;20107;-68
2020/12/17 10:11:56;;;;;;;10.02;5.30;;;9.50;99.90;;;;;;5071777;28;20099;-69
2020/12/17 10:14:22;;;;;;;18.02;5.18;;;9.60;99.90;;;;;;5073136;28;20081;-68
2020/12/17 10:16:49;;;;;;;15.15;5.50;;;9.60;99.90;;;;;;5073129;28;20107;-68
2020/12/17 10:19:22;;;;;;;9.00;4.30;;;9.60;99.90;;;;;;5073235;28;20013;-67
2020/12/17 10:21:48;;;;;;;11.13;4.50;;;9.70;99.90;;;;;;5073513;28;20488;-68
2020/12/17 10:24:13;;;;;;;13.38;4.75;;;9.70;99.90;;;;;;5072894;28;20028;-68
2020/12/17 10:26:39;;;;;;;14.82;4.47;;;9.70;99.90;;;;;;5073745;28;20040;-68
2020/12/17 10:29:04;;;;;;;15.90;4.38;;;9.70;99.90;;;;;;5073675;28;20468;-68
2020/12/17 10:31:30;;;;;;;11.95;4.80;;;9.80;99.90;;;;;;5071713;28;20078;-69
2020/12/17 10:33:56;;;;;;;14.25;5.53;;;9.80;99.90;;;;;;5073600;28;20099;-68
2020/12/17 10:36:23;;;;;;;10.98;4.35;;;9.80;99.90;;;;;;5073514;28;20140;-68
2020/12/17 10:38:48;;;;;;;14.70;4.97;;;9.80;99.90;;;;;;5076762;28;20024;-68
2020/12/17 10:41:17;;;;;;;17.42;5.03;;;9.80;99.90;;;;;;5093736;28;20020;-68
2020/12/17 10:43:43;;;;;;;9.02;4.22;;;9.80;99.90;;;;;;5088592;28;20044;-68
2020/12/17 10:46:10;;;;;;;14.05;5.45;;;9.90;99.90;;;;;;5075304;28;20055;-67
2020/12/17 10:48:38;;;;;;;18.00;5.13;;;10.00;99.90;;;;;;5076757;28;20432;-69
2020/12/17 10:51:04;;;;;;;10.48;4.65;;;10.00;99.90;;;;;;5075689;28;20025;-69
2020/12/17 10:53:29;;;;;;;16.95;4.78;;;10.00;99.90;;;;;;5073286;28;20544;-69
2020/12/17 10:55:55;;;;;;;13.10;4.68;;;10.10;99.90;;;;;;5073298;28;20025;-68
2020/12/17 10:58:20;;;;;;;8.30;4.60;;;10.10;99.90;;;;;;5082125;28;20442;-69
2020/12/17 11:00:46;;;;;;;7.18;4.32;;;10.20;99.90;;;;;;5091124;28;20418;-69
2020/12/17 11:03:11;;;;;;;13.20;4.70;;;10.30;99.90;;;;;;5087099;28;20029;-68
2020/12/17 11:05:37;;;;;;;14.75;4.93;;;10.40;99.90;;;;;;5089214;28;20430;-68
2020/12/17 11:08:03;;;;;;;13.48;4.47;;;10.40;99.90;;;;;;5090116;28;20020;-68
2020/12/17 11:10:29;;;;;;;16.75;4.47;;;10.40;99.90;;;;;;5087731;28;20093;-68
2020/12/17 11:12:54;;;;;;;11.38;4.55;;;10.50;99.90;;;;;;5088187;28;20020;-68
2020/12/17 11:15:20;;;;;;;15.18;4.10;;;10.50;99.90;;;;;;5089696;28;20491;-68
2020/12/17 11:17:45;;;;;;;13.80;4.68;;;10.60;99.90;;;;;;5082103;28;20116;-68
2020/12/17 11:20:13;;;;;;;8.98;4.00;;;10.60;99.90;;;;;;5072185;28;20028;-68
2020/12/17 11:22:39;;;;;;;11.70;4.60;;;10.60;99.90;;;;;;5072924;28;20100;-68
2020/12/17 11:25:05;;;;;;;18.52;4.85;;;10.60;99.90;;;;;;5072784;28;20043;-68
2020/12/17 11:27:30;;;;;;;12.55;4.45;;;10.60;99.90;;;;;;5071866;28;20024;-69
2020/12/17 11:29:56;;;;;;;15.80;4.97;;;10.60;99.90;;;;;;5072748;28;20111;-69
2020/12/17 11:32:21;;;;;;;10.20;4.32;;;10.60;99.90;;;;;;5072263;28;20024;-69
2020/12/17 11:34:47;;;;;;;12.52;4.20;;;10.50;99.90;;;;;;5071875;28;20470;-70
2020/12/17 11:37:15;;;;;;;8.50;3.70;;;10.50;99.90;;;;;;5072370;28;20135;-68
2020/12/17 11:39:41;;;;;;;13.48;4.30;;;10.60;99.90;;;;;;5083045;28;20032;-68
2020/12/17 11:42:06;;;;;;;13.65;4.43;;;10.60;99.90;;;;;;5087678;28;20061;-68
2020/12/17 11:44:33;;;;;;;13.60;4.07;;;10.60;99.90;;;;;;5089290;28;20549;-68
2020/12/17 11:46:58;;;;;;;8.35;3.58;;;10.60;99.90;;;;;;5077859;28;20113;-68
2020/12/17 11:49:24;;;;;;;14.43;3.90;;;10.60;99.90;;;;;;5071515;28;20480;-68
2020/12/17 11:51:51;;;;;;;7.28;4.45;;;10.60;99.90;;;;;;5071786;28;20031;-68
2020/12/17 11:54:16;;;;;;;11.77;4.47;;;10.70;99.90;;;;;;5071057;28;20495;-68
2020/12/17 11:56:45;;;;;;;10.05;4.00;;;10.60;99.90;;;;;;5071945;28;20040;-68
2020/12/17 11:59:10;;;;;;;11.80;4.00;;;10.70;99.90;;;;;;5071796;28;20035;-68
2020/12/17 12:01:36;;;;;;;16.70;5.22;;;10.70;99.90;;;;;;5075877;28;20020;-69
2020/12/17 12:04:02;;;;;;;17.40;4.68;;;10.70;99.90;;;;;;5089334;28;20356;-69
2020/12/17 12:06:27;;;;;;;14.07;4.40;;;10.70;99.90;;;;;;5087886;28;20089;-69
2020/12/17 12:08:53;;;;;;;8.32;4.25;;;10.70;99.90;;;;;;5090801;28;20028;-68
2020/12/17 12:11:18;;;;;;;9.25;3.40;;;10.70;99.90;;;;;;5088544;28;20021;-69
2020/12/17 12:13:44;;;;;;;10.07;3.70;;;10.70;99.90;;;;;;5089296;28;20029;-68
2020/12/17 12:16:16;;;;;;;9.00;3.58;;;10.60;99.90;;;;;;5086842;28;20024;-69
2020/12/17 12:18:42;;;;;;;8.50;3.53;;;10.60;99.90;;;;;;5089972;28;20019;-69
2020/12/17 12:21:12;;;;;;;9.23;4.22;;;10.60;99.90;;;;;;5089534;28;20426;-69
2020/12/17 12:23:38;;;;;;;9.30;3.75;;;10.60;99.90;;;;;;5090204;28;20016;-69
2020/12/17 12:26:03;;;;;;;11.77;4.10;;;10.60;99.90;;;;;;5090755;28;20042;-68
2020/12/17 12:28:29;;;;;;;15.45;4.53;;;10.70;99.90;;;;;;5088696;28;20012;-68
2020/12/17 12:30:56;;;;;;;9.48;4.07;;;10.60;99.90;;;;;;5088551;28;20035;-69
2020/12/17 12:33:21;;;;;;;10.48;3.75;;;10.70;99.90;;;;;;5087138;28;20031;-68
2020/12/17 12:35:47;;;;;;;9.43;4.10;;;10.60;99.90;;;;;;5089649;28;20044;-69
2020/12/17 12:38:12;;;;;;;9.63;4.35;;;10.50;99.90;;;;;;5086595;28;20023;-68
2020/12/17 12:40:39;;;;;;;13.98;4.40;;;10.40;99.90;;;;;;5084160;28;20456;-70
2020/12/17 12:43:06;;;;;;;12.05;4.78;;;10.30;99.90;;;;;;5089096;28;20024;-68
2020/12/17 12:45:31;;;;;;;14.77;4.43;;;10.30;99.90;;;;;;5086919;28;20075;-67
2020/12/17 12:47:57;;;;;;;10.43;4.78;;;10.30;99.90;;;;;;5090308;28;20084;-68